createdAt,value
2018-08-22T00:01:18.304Z,24.45
2018-08-22T00:03:46.160Z,24.44
2018-08-22T00:06:14.038Z,24.43
2018-08-22T00:08:43.282Z,24.42
2018-08-22T00:11:11.824Z,24.41
2018-08-22T00:13:40.957Z,24.40
2018-08-22T00:16:08.530Z,24.39
2018-08-22T00:18:36.977Z,24.38
2018-08-22T00:21:04.574Z,24.37
2018-08-22T00:23:32.298Z,24.35
2018-08-22T00:25:59.919Z,24.34
2018-08-22T00:28:27.582Z,24.33
2018-08-22T00:30:55.898Z,24.32
2018-08-22T00:33:24.117Z,24.30
2018-08-22T00:35:51.729Z,24.30
2018-08-22T00:38:19.729Z,24.29
2018-08-22T00:40:47.365Z,24.29
2018-08-22T00:43:15.005Z,24.29
2018-08-22T00:45:42.644Z,24.28
2018-08-22T00:48:10.873Z,24.28
2018-08-22T00:50:38.490Z,24.26
2018-08-22T00:53:06.386Z,24.26
2018-08-22T00:55:34.027Z,24.25
2018-08-22T00:58:01.946Z,24.26
2018-08-22T01:00:30.228Z,24.25
2018-08-22T01:02:57.861Z,24.24
2018-08-22T01:05:26.162Z,24.24
2018-08-22T01:07:54.903Z,24.25
2018-08-22T01:10:23.384Z,24.24
2018-08-22T01:12:51.068Z,24.25
2018-08-22T01:15:19.548Z,24.24
2018-08-22T01:17:47.196Z,24.23
2018-08-22T01:20:14.809Z,24.23
2018-08-22T01:22:44.479Z,24.22
2018-08-22T01:25:12.189Z,24.20
2018-08-22T01:27:44.447Z,24.20
2018-08-22T01:30:12.294Z,24.20
2018-08-22T01:32:40.182Z,24.21
2018-08-22T01:35:08.090Z,24.18
2018-08-22T01:37:36.004Z,24.16
2018-08-22T01:40:04.280Z,24.14
2018-08-22T01:42:32.179Z,24.13
2018-08-22T01:44:59.819Z,24.11
2018-08-22T01:47:28.178Z,24.10
2018-08-22T01:49:55.846Z,24.10
2018-08-22T01:52:23.517Z,24.08
2018-08-22T01:54:51.758Z,24.07
2018-08-22T01:57:19.682Z,24.06
2018-08-22T01:59:47.363Z,24.06
2018-08-22T02:02:15.308Z,24.04
2018-08-22T02:04:43.541Z,24.03
2018-08-22T02:07:11.404Z,24.00
2018-08-22T02:09:39.076Z,24.00
2018-08-22T02:12:06.772Z,24.00
2018-08-22T02:14:34.429Z,23.98
2018-08-22T02:17:02.065Z,23.97
2018-08-22T02:19:30.002Z,23.96
2018-08-22T02:21:57.967Z,23.92
2018-08-22T02:24:25.583Z,23.93
2018-08-22T02:26:53.799Z,23.93
2018-08-22T02:29:21.706Z,23.92
2018-08-22T02:31:49.851Z,23.91
2018-08-22T02:34:17.750Z,23.90
2018-08-22T02:36:45.741Z,23.89
2018-08-22T02:39:13.428Z,23.88
2018-08-22T02:41:41.593Z,23.89
2018-08-22T02:44:09.578Z,23.89
2018-08-22T02:46:37.228Z,23.89
2018-08-22T02:49:04.876Z,23.88
2018-08-22T02:51:32.801Z,23.88
2018-08-22T02:54:00.681Z,23.87
2018-08-22T02:56:28.334Z,23.86
2018-08-22T02:58:56.634Z,23.84
2018-08-22T03:01:24.616Z,23.83
2018-08-22T03:03:52.623Z,23.81
2018-08-22T03:06:20.270Z,23.78
2018-08-22T03:08:47.931Z,23.77
2018-08-22T03:11:15.923Z,23.76
2018-08-22T03:13:43.809Z,23.74
2018-08-22T03:16:11.495Z,23.74
2018-08-22T03:18:39.124Z,23.71
2018-08-22T03:21:06.806Z,23.70
2018-08-22T03:23:34.478Z,23.69
2018-08-22T03:26:02.102Z,23.69
2018-08-22T03:28:30.173Z,23.67
2018-08-22T03:30:58.105Z,23.65
2018-08-22T03:33:25.726Z,23.64
2018-08-22T03:35:53.706Z,23.64
2018-08-22T03:38:21.365Z,23.63
2018-08-22T03:40:48.989Z,23.62
2018-08-22T03:43:16.938Z,23.61
2018-08-22T03:45:44.567Z,23.60
2018-08-22T03:48:12.227Z,23.60
2018-08-22T03:50:39.892Z,23.58
2018-08-22T03:53:07.560Z,23.57
2018-08-22T03:55:35.209Z,23.57
2018-08-22T03:58:03.557Z,23.56
2018-08-22T04:00:31.477Z,23.56
2018-08-22T04:02:59.409Z,23.55
2018-08-22T04:05:27.069Z,23.55
2018-08-22T04:07:54.952Z,23.54
2018-08-22T04:10:22.951Z,23.54
2018-08-22T04:12:50.953Z,23.53
2018-08-22T04:15:18.880Z,23.52
2018-08-22T04:17:47.107Z,23.51
2018-08-22T04:20:14.781Z,23.53
2018-08-22T04:22:43.051Z,23.53
2018-08-22T04:25:10.696Z,23.53
2018-08-22T04:27:38.664Z,23.54
2018-08-22T04:30:06.646Z,23.53
2018-08-22T04:32:34.308Z,23.54
2018-08-22T04:35:02.225Z,23.54
2018-08-22T04:37:29.977Z,23.54
2018-08-22T04:39:57.665Z,23.55
2018-08-22T04:42:25.644Z,23.56
2018-08-22T04:44:53.248Z,23.53
2018-08-22T04:47:20.975Z,23.52
2018-08-22T04:49:48.629Z,23.53
2018-08-22T04:52:16.584Z,23.53
2018-08-22T04:54:44.596Z,23.54
2018-08-22T04:57:12.461Z,23.53
2018-08-22T04:59:40.437Z,23.52
2018-08-22T05:02:08.121Z,23.54
2018-08-22T05:04:36.127Z,23.54
2018-08-22T05:07:03.946Z,23.55
2018-08-22T05:09:31.579Z,23.53
2018-08-22T05:11:59.248Z,23.53
2018-08-22T05:14:27.238Z,23.53
2018-08-22T05:16:55.163Z,23.53
2018-08-22T05:19:22.787Z,23.53
2018-08-22T05:21:50.791Z,23.54
2018-08-22T05:24:18.760Z,23.52
2018-08-22T05:26:46.642Z,23.55
2018-08-22T05:29:14.333Z,23.56
2018-08-22T05:31:41.995Z,23.58
2018-08-22T05:34:09.810Z,23.61
2018-08-22T05:36:37.707Z,23.63
2018-08-22T05:39:08.599Z,23.63
2018-08-22T05:41:36.594Z,23.64
2018-08-22T05:44:04.757Z,23.67
2018-08-22T05:46:32.425Z,23.70
2018-08-22T05:49:00.386Z,23.70
2018-08-22T05:51:28.321Z,23.72
2018-08-22T05:53:56.453Z,23.74
2018-08-22T05:56:24.131Z,23.68
2018-08-22T05:58:51.973Z,23.76
2018-08-22T06:01:19.813Z,23.80
2018-08-22T06:03:47.742Z,23.81
2018-08-22T06:06:15.462Z,23.85
2018-08-22T06:08:43.138Z,23.86
2018-08-22T06:11:11.066Z,23.84
2018-08-22T06:13:38.817Z,23.82
2018-08-22T06:16:06.546Z,23.79
2018-08-22T06:18:36.486Z,23.78
2018-08-22T06:21:04.447Z,23.75
2018-08-22T06:23:32.467Z,23.78
2018-08-22T06:26:00.073Z,23.81
2018-08-22T06:28:27.873Z,23.83
2018-08-22T06:30:55.516Z,23.84
2018-08-22T06:33:23.197Z,23.82
2018-08-22T06:35:50.864Z,23.82
2018-08-22T06:38:18.976Z,23.81
2018-08-22T06:40:46.700Z,23.82
2018-08-22T06:43:14.876Z,23.83
2018-08-22T06:45:42.821Z,23.82
2018-08-22T06:48:11.248Z,23.83
2018-08-22T06:50:38.894Z,23.84
2018-08-22T06:53:07.584Z,23.85
2018-08-22T06:55:35.601Z,23.85
2018-08-22T06:58:03.613Z,23.86
2018-08-22T07:00:31.326Z,23.86
2018-08-22T07:02:58.989Z,23.87
2018-08-22T07:05:26.938Z,23.86
2018-08-22T07:07:55.195Z,23.87
2018-08-22T07:10:23.154Z,23.89
2018-08-22T07:12:51.137Z,23.89
2018-08-22T07:15:18.769Z,23.90
2018-08-22T07:17:47.015Z,23.90
2018-08-22T07:20:14.713Z,23.92
2018-08-22T07:22:42.586Z,23.94
2018-08-22T07:25:10.249Z,23.97
2018-08-22T07:27:37.986Z,23.98
2018-08-22T07:30:05.859Z,23.98
2018-08-22T07:32:33.525Z,23.98
2018-08-22T07:35:01.598Z,24.00
2018-08-22T07:37:29.580Z,24.01
2018-08-22T07:39:57.220Z,24.01
2018-08-22T07:42:24.887Z,24.03
2018-08-22T07:44:52.841Z,24.04
2018-08-22T07:47:20.456Z,24.06
2018-08-22T07:49:48.082Z,24.08
2018-08-22T07:52:15.748Z,24.10
2018-08-22T07:54:44.809Z,24.11
2018-08-22T07:57:13.706Z,24.11
2018-08-22T07:59:41.371Z,24.12
2018-08-22T08:02:09.402Z,24.14
2018-08-22T08:04:37.632Z,24.15
2018-08-22T08:07:06.028Z,24.18
2018-08-22T08:09:33.747Z,24.19
2018-08-22T08:12:01.418Z,24.20
2018-08-22T08:14:29.946Z,24.22
2018-08-22T08:16:57.854Z,24.23
2018-08-22T08:19:25.561Z,24.23
2018-08-22T08:21:53.570Z,24.24
2018-08-22T08:24:21.428Z,24.26
2018-08-22T08:26:49.444Z,24.27
2018-08-22T08:29:17.115Z,24.29
2018-08-22T08:31:45.135Z,24.31
2018-08-22T08:34:13.056Z,24.33
2018-08-22T08:36:40.752Z,24.34
2018-08-22T08:39:09.866Z,24.38
2018-08-22T08:41:37.794Z,24.41
2018-08-22T08:44:05.831Z,24.42
2018-08-22T08:46:33.842Z,24.45
2018-08-22T08:49:01.949Z,24.47
2018-08-22T08:51:29.629Z,24.49
2018-08-22T08:53:57.616Z,24.51
2018-08-22T08:56:25.568Z,24.53
2018-08-22T08:58:53.604Z,24.54
2018-08-22T09:01:21.688Z,24.55
2018-08-22T09:03:49.430Z,24.58
2018-08-22T09:06:17.376Z,24.54
2018-08-22T09:08:45.342Z,24.62
2018-08-22T09:11:13.243Z,24.64
2018-08-22T09:13:47.242Z,24.66
2018-08-22T09:16:16.448Z,24.67
2018-08-22T09:18:44.185Z,24.70
2018-08-22T09:21:11.845Z,24.72
2018-08-22T09:23:40.018Z,24.75
2018-08-22T09:26:07.638Z,24.78
2018-08-22T09:28:35.341Z,24.81
2018-08-22T09:31:02.953Z,24.83
2018-08-22T09:33:31.200Z,24.84
2018-08-22T09:35:59.150Z,24.87
2018-08-22T09:38:26.745Z,24.87
2018-08-22T09:40:54.733Z,24.89
2018-08-22T09:43:22.376Z,24.92
2018-08-22T09:45:50.238Z,24.94
2018-08-22T09:48:18.100Z,24.95
2018-08-22T09:50:46.087Z,24.97
2018-08-22T09:53:13.794Z,24.99
2018-08-22T09:55:41.471Z,25.01
2018-08-22T09:58:09.212Z,25.02
2018-08-22T10:00:42.301Z,25.06
2018-08-22T10:03:10.044Z,25.08
2018-08-22T10:05:37.996Z,25.11
2018-08-22T10:08:05.994Z,25.14
2018-08-22T10:10:33.650Z,25.17
2018-08-22T10:13:01.329Z,25.18
2018-08-22T10:15:29.253Z,25.20
2018-08-22T10:17:57.160Z,25.20
2018-08-22T10:20:25.422Z,25.23
2018-08-22T10:22:53.051Z,25.25
2018-08-22T10:25:20.991Z,25.30
2018-08-22T10:27:48.665Z,25.33
2018-08-22T10:30:17.145Z,25.38
2018-08-22T10:32:45.339Z,25.42
2018-08-22T10:35:13.308Z,25.44
2018-08-22T10:37:40.921Z,25.46
2018-08-22T10:40:08.801Z,25.49
2018-08-22T10:42:36.444Z,25.50
2018-08-22T10:45:04.189Z,25.54
2018-08-22T10:47:31.841Z,25.58
2018-08-22T10:49:59.453Z,25.62
2018-08-22T10:52:27.344Z,25.67
2018-08-22T10:54:54.935Z,25.72
2018-08-22T10:57:22.625Z,25.76
2018-08-22T10:59:50.570Z,25.80
2018-08-22T11:02:18.610Z,25.83
2018-08-22T11:04:46.603Z,25.85
2018-08-22T11:07:14.307Z,25.89
2018-08-22T11:09:42.122Z,25.92
2018-08-22T11:12:09.957Z,25.96
2018-08-22T11:14:38.522Z,26.00
2018-08-22T11:17:07.077Z,26.03
2018-08-22T11:19:34.829Z,25.38
2018-08-22T11:22:14.079Z,26.11
2018-08-22T11:24:53.123Z,26.14
2018-08-22T11:27:32.654Z,26.17
2018-08-22T11:30:11.500Z,26.20
2018-08-22T11:32:50.700Z,26.24
2018-08-22T11:35:17.123Z,26.24
2018-08-22T11:37:44.961Z,26.27
2018-08-22T11:40:12.853Z,26.33
2018-08-22T11:42:40.759Z,26.37
2018-08-22T11:45:08.406Z,26.42
2018-08-22T11:47:36.449Z,26.45
2018-08-22T11:50:04.085Z,26.51
2018-08-22T11:52:32.385Z,26.54
2018-08-22T11:55:00.292Z,26.59
2018-08-22T11:57:28.213Z,26.64
2018-08-22T11:59:55.842Z,26.67
2018-08-22T12:02:23.788Z,26.73
2018-08-22T12:04:51.453Z,26.77
2018-08-22T12:07:19.116Z,26.80
2018-08-22T12:09:46.806Z,26.85
2018-08-22T12:12:15.091Z,26.89
2018-08-22T12:14:44.551Z,26.93
2018-08-22T12:17:14.308Z,26.99
2018-08-22T12:19:43.043Z,27.02
2018-08-22T12:22:11.350Z,27.07
2018-08-22T12:24:39.486Z,27.10
2018-08-22T12:27:07.541Z,26.84
2018-08-22T12:29:35.399Z,27.20
2018-08-22T12:32:03.954Z,27.23
2018-08-22T12:34:31.576Z,27.30
2018-08-22T12:36:59.726Z,27.36
2018-08-22T12:39:27.978Z,27.39
2018-08-22T12:41:55.846Z,27.39
2018-08-22T12:44:23.622Z,27.41
2018-08-22T12:46:51.277Z,27.45
2018-08-22T12:49:18.995Z,27.48
2018-08-22T12:51:46.929Z,27.54
2018-08-22T12:54:14.888Z,27.58
2018-08-22T12:56:42.893Z,27.61
2018-08-22T12:59:11.052Z,27.64
2018-08-22T13:01:39.136Z,27.69
2018-08-22T13:04:06.992Z,27.74
2018-08-22T13:06:34.894Z,27.77
2018-08-22T13:09:02.945Z,27.81
2018-08-22T13:11:31.280Z,27.85
2018-08-22T13:13:58.952Z,27.90
2018-08-22T13:16:26.581Z,27.91
2018-08-22T13:18:54.271Z,27.93
2018-08-22T13:21:22.212Z,27.96
2018-08-22T13:23:49.961Z,27.98
2018-08-22T13:26:18.195Z,28.01
2018-08-22T13:28:46.132Z,28.00
2018-08-22T13:31:13.840Z,28.00
2018-08-22T13:33:41.534Z,28.02
2018-08-22T13:36:09.183Z,28.05
2018-08-22T13:38:43.812Z,28.07
2018-08-22T13:41:13.930Z,28.12
2018-08-22T13:43:47.709Z,28.13
2018-08-22T13:46:16.108Z,28.15
2018-08-22T13:48:43.868Z,28.22
2018-08-22T13:51:13.508Z,28.27
2018-08-22T13:53:45.429Z,28.32
2018-08-22T13:56:35.129Z,28.36
2018-08-22T13:59:03.811Z,28.39
2018-08-22T14:01:31.580Z,28.43
2018-08-22T14:03:59.215Z,28.47
2018-08-22T14:06:27.029Z,28.49
2018-08-22T14:08:55.232Z,28.35
2018-08-22T14:11:23.068Z,28.64
2018-08-22T14:13:50.841Z,28.74
2018-08-22T14:16:18.590Z,28.83
2018-08-22T14:18:46.557Z,28.98
2018-08-22T14:21:14.539Z,29.27
2018-08-22T14:23:42.242Z,30.02
2018-08-22T14:26:10.192Z,30.17
2018-08-22T14:28:37.859Z,31.07
2018-08-22T14:31:05.513Z,31.83
2018-08-22T14:33:33.512Z,32.05
2018-08-22T14:36:01.362Z,32.30
2018-08-22T14:38:28.992Z,32.66
2018-08-22T14:40:57.133Z,32.95
2018-08-22T14:43:25.085Z,33.10
2018-08-22T14:45:52.948Z,32.82
2018-08-22T14:48:20.596Z,32.85
2018-08-22T14:50:48.276Z,33.26
2018-08-22T14:53:15.937Z,33.52
2018-08-22T14:55:43.953Z,33.65
2018-08-22T14:58:11.932Z,33.70
2018-08-22T15:00:39.879Z,33.77
2018-08-22T15:03:07.841Z,33.72
2018-08-22T15:05:35.250Z,33.51
2018-08-22T15:08:03.257Z,33.59
2018-08-22T15:10:30.938Z,33.59
2018-08-22T15:12:58.577Z,33.38
2018-08-22T15:15:26.270Z,32.80
2018-08-22T15:17:54.213Z,33.14
2018-08-22T15:20:22.105Z,33.34
2018-08-22T15:22:50.253Z,33.43
2018-08-22T15:25:17.913Z,33.38
2018-08-22T15:27:45.901Z,33.27
2018-08-22T15:30:13.532Z,33.16
2018-08-22T15:32:41.500Z,33.16
2018-08-22T15:35:09.221Z,32.83
2018-08-22T15:37:37.273Z,32.80
2018-08-22T15:40:05.389Z,32.15
2018-08-22T15:42:33.041Z,31.92
2018-08-22T15:45:01.310Z,31.26
2018-08-22T15:47:29.322Z,30.78
2018-08-22T15:49:57.177Z,30.45
2018-08-22T15:52:25.489Z,30.31
2018-08-22T15:55:06.221Z,30.21
2018-08-22T15:58:16.512Z,30.20
2018-08-22T16:00:51.417Z,30.07
2018-08-22T16:03:19.769Z,29.94
2018-08-22T16:05:48.337Z,29.84
2018-08-22T16:08:18.594Z,29.75
2018-08-22T16:10:46.497Z,29.69
2018-08-22T16:13:20.201Z,29.63
2018-08-22T16:15:49.984Z,29.58
2018-08-22T16:18:17.605Z,29.54
2018-08-22T16:20:55.822Z,29.51
2018-08-22T16:23:27.449Z,29.47
2018-08-22T16:25:56.502Z,29.45
2018-08-22T16:28:24.714Z,29.40
2018-08-22T16:30:57.111Z,29.33
2018-08-22T16:33:21.347Z,29.28
2018-08-22T16:35:49.633Z,29.23
2018-08-22T16:38:17.284Z,29.20
2018-08-22T16:40:50.709Z,29.16
2018-08-22T16:43:35.232Z,29.11
2018-08-22T16:46:05.548Z,29.06
2018-08-22T16:48:33.279Z,29.02
2018-08-22T16:51:01.281Z,28.98
2018-08-22T16:53:29.190Z,28.94
2018-08-22T16:55:56.820Z,28.89
2018-08-22T16:58:24.466Z,28.84
2018-08-22T17:00:52.425Z,28.83
2018-08-22T17:03:20.412Z,28.83
2018-08-22T17:05:48.082Z,28.80
2018-08-22T17:08:16.138Z,28.80
2018-08-22T17:10:53.033Z,28.77
2018-08-22T17:13:27.902Z,28.78
2018-08-22T17:15:55.515Z,28.83
2018-08-22T17:18:23.598Z,28.86
2018-08-22T17:20:51.471Z,28.89
2018-08-22T17:23:19.513Z,28.92
2018-08-22T17:25:47.145Z,28.95
2018-08-22T17:28:16.208Z,29.00
2018-08-22T17:30:44.056Z,28.97
2018-08-22T17:33:12.762Z,28.94
2018-08-22T17:35:42.421Z,28.89
2018-08-22T17:38:11.113Z,28.83
2018-08-22T17:40:41.203Z,28.76
2018-08-22T17:43:09.259Z,28.70
2018-08-22T17:45:38.398Z,28.64
2018-08-22T17:48:06.313Z,28.58
2018-08-22T17:50:33.974Z,28.56
2018-08-22T17:53:05.634Z,28.51
2018-08-22T17:55:33.296Z,28.49
2018-08-22T17:58:01.874Z,28.45
2018-08-22T18:00:32.183Z,28.42
2018-08-22T18:03:00.075Z,28.40
2018-08-22T18:05:29.034Z,28.37
2018-08-22T18:07:58.397Z,28.32
2018-08-22T18:10:26.126Z,28.29
2018-08-22T18:12:54.509Z,28.27
2018-08-22T18:15:22.194Z,28.26
2018-08-22T18:17:49.865Z,28.21
2018-08-22T18:20:18.563Z,28.20
2018-08-22T18:22:46.311Z,28.17
2018-08-22T18:25:14.132Z,28.14
2018-08-22T18:27:42.365Z,28.12
2018-08-22T18:30:11.047Z,28.09
2018-08-22T18:32:39.081Z,28.05
2018-08-22T18:35:11.840Z,28.04
2018-08-22T18:37:40.597Z,28.01
2018-08-22T18:40:19.728Z,27.99
2018-08-22T18:42:51.172Z,27.98
2018-08-22T18:45:19.796Z,27.95
2018-08-22T18:47:47.646Z,27.93
2018-08-22T18:50:15.645Z,27.89
2018-08-22T18:52:48.889Z,27.86
2018-08-22T18:55:16.874Z,27.84
2018-08-22T18:57:45.014Z,27.81
2018-08-22T19:00:12.614Z,27.78
2018-08-22T19:02:40.225Z,27.73
2018-08-22T19:05:19.676Z,27.69
2018-08-22T19:07:57.661Z,27.66
2018-08-22T19:10:27.920Z,27.60
2018-08-22T19:13:00.454Z,27.55
2018-08-22T19:15:28.406Z,27.53
2018-08-22T19:17:56.033Z,27.53
2018-08-22T19:20:24.782Z,27.52
2018-08-22T19:22:52.933Z,27.50
2018-08-22T19:25:20.915Z,27.50
2018-08-22T19:27:49.001Z,27.49
2018-08-22T19:30:16.874Z,27.47
2018-08-22T19:32:45.122Z,27.45
2018-08-22T19:35:12.769Z,27.43
2018-08-22T19:37:40.678Z,27.41
2018-08-22T19:40:09.520Z,27.39
2018-08-22T19:42:39.031Z,27.35
2018-08-22T19:45:07.752Z,27.34
2018-08-22T19:47:37.050Z,27.30
2018-08-22T19:50:05.835Z,27.27
2018-08-22T19:52:33.452Z,27.23
2018-08-22T19:55:02.346Z,27.20
2018-08-22T19:57:34.049Z,27.17
2018-08-22T20:00:03.185Z,27.15
2018-08-22T20:02:31.168Z,27.13
2018-08-22T20:04:58.802Z,27.10
2018-08-22T20:07:26.882Z,27.08
2018-08-22T20:09:54.802Z,27.05
2018-08-22T20:12:32.914Z,27.04
2018-08-22T20:15:00.658Z,27.02
2018-08-22T20:17:28.879Z,26.98
2018-08-22T20:19:56.823Z,26.96
2018-08-22T20:22:28.286Z,26.95
2018-08-22T20:24:58.559Z,26.92
2018-08-22T20:27:26.185Z,26.90
2018-08-22T20:29:58.690Z,26.87
2018-08-22T20:32:28.201Z,26.85
2018-08-22T20:34:55.914Z,26.83
2018-08-22T20:37:23.546Z,26.81
2018-08-22T20:39:56.851Z,26.80
2018-08-22T20:42:25.149Z,26.76
2018-08-22T20:44:53.137Z,26.74
2018-08-22T20:47:21.142Z,26.72
2018-08-22T20:49:49.688Z,26.71
2018-08-22T20:52:17.740Z,26.69
2018-08-22T20:54:53.203Z,26.68
2018-08-22T20:57:21.696Z,26.64
2018-08-22T20:59:49.308Z,26.65
2018-08-22T21:02:17.960Z,26.64
2018-08-22T21:04:46.533Z,26.61
2018-08-22T21:07:18.674Z,26.59
2018-08-22T21:09:46.949Z,26.58
2018-08-22T21:12:14.606Z,26.56
2018-08-22T21:14:42.657Z,26.56
2018-08-22T21:17:10.864Z,26.54
2018-08-22T21:19:38.539Z,26.53
2018-08-22T21:22:17.560Z,26.50
2018-08-22T21:24:45.581Z,26.48
2018-08-22T21:27:13.869Z,26.46
2018-08-22T21:29:41.520Z,26.45
2018-08-22T21:32:09.951Z,26.43
2018-08-22T21:34:37.594Z,26.42
2018-08-22T21:37:15.245Z,26.39
2018-08-22T21:39:42.873Z,26.38
2018-08-22T21:42:11.014Z,26.37
2018-08-22T21:44:38.914Z,26.37
2018-08-22T21:47:08.807Z,26.40
2018-08-22T21:49:36.722Z,26.39
2018-08-22T21:52:04.948Z,26.42
2018-08-22T21:54:32.644Z,26.42
2018-08-22T21:57:00.261Z,26.41
2018-08-22T21:59:28.616Z,26.41
2018-08-22T22:02:02.182Z,26.40
2018-08-22T22:04:31.911Z,26.40
2018-08-22T22:06:59.806Z,26.40
2018-08-22T22:09:27.759Z,26.40
2018-08-22T22:11:59.196Z,26.40
2018-08-22T22:14:30.455Z,26.42
2018-08-22T22:16:58.989Z,26.42
2018-08-22T22:19:29.117Z,26.43
2018-08-22T22:21:56.742Z,26.42
2018-08-22T22:24:24.417Z,26.43
2018-08-22T22:26:52.102Z,26.42
2018-08-22T22:29:23.043Z,26.40
2018-08-22T22:31:50.986Z,26.40
2018-08-22T22:34:18.693Z,26.39
2018-08-22T22:36:46.389Z,26.38
2018-08-22T22:39:31.113Z,26.38
2018-08-22T22:41:58.802Z,26.38
2018-08-22T22:44:26.701Z,26.37
2018-08-22T22:46:54.696Z,26.36
2018-08-22T22:49:22.362Z,26.35
2018-08-22T22:51:50.004Z,26.24
2018-08-22T22:54:27.568Z,26.35
2018-08-22T22:56:55.410Z,26.33
2018-08-22T22:59:23.022Z,26.33
2018-08-22T23:01:50.686Z,26.33
2018-08-22T23:04:18.592Z,26.33
2018-08-22T23:06:46.301Z,26.31
2018-08-22T23:09:13.975Z,26.29
2018-08-22T23:11:41.902Z,26.27
2018-08-22T23:14:09.965Z,26.27
2018-08-22T23:16:37.629Z,26.28
2018-08-22T23:19:05.317Z,26.26
2018-08-22T23:21:32.983Z,26.26
2018-08-22T23:24:06.085Z,26.25
2018-08-22T23:26:33.716Z,26.23
2018-08-22T23:29:01.429Z,26.22
2018-08-22T23:31:29.083Z,26.20
2018-08-22T23:33:57.218Z,26.19
2018-08-22T23:38:54.982Z,26.18
2018-08-22T23:41:23.153Z,26.17
2018-08-22T23:43:51.078Z,26.17
2018-08-22T23:46:18.929Z,26.16
2018-08-22T23:48:53.630Z,26.14
2018-08-22T23:51:22.090Z,26.14
2018-08-22T23:53:49.740Z,26.12
2018-08-22T23:56:28.860Z,26.10
2018-08-22T23:58:57.328Z,26.09
